sensor_id;sensor_type;location;lat;lon;timestamp;pressure;altitude;pressure_sealevel;temperature
11792;BMP180;5953;52.372;9.918;2022-09-28T00:00:33;98857.00;;;13.90
11792;BMP180;5953;52.372;9.918;2022-09-28T00:03:01;98862.00;;;13.90
11792;BMP180;5953;52.372;9.918;2022-09-28T00:05:29;98849.00;;;13.80
11792;BMP180;5953;52.372;9.918;2022-09-28T00:07:58;98843.00;;;13.90
11792;BMP180;5953;52.372;9.918;2022-09-28T00:10:26;98849.00;;;14.00
11792;BMP180;5953;52.372;9.918;2022-09-28T00:12:54;98847.00;;;14.00
11792;BMP180;5953;52.372;9.918;2022-09-28T00:15:22;98852.00;;;14.00
11792;BMP180;5953;52.372;9.918;2022-09-28T00:17:51;98843.00;;;13.80
11792;BMP180;5953;52.372;9.918;2022-09-28T00:20:19;98847.00;;;14.00
11792;BMP180;5953;52.372;9.918;2022-09-28T00:22:48;98848.00;;;13.80
11792;BMP180;5953;52.372;9.918;2022-09-28T00:25:17;98844.00;;;13.80
11792;BMP180;5953;52.372;9.918;2022-09-28T00:27:48;98840.00;;;13.60
11792;BMP180;5953;52.372;9.918;2022-09-28T00:30:16;98822.00;;;13.60
11792;BMP180;5953;52.372;9.918;2022-09-28T00:32:44;98826.00;;;13.60
11792;BMP180;5953;52.372;9.918;2022-09-28T00:35:11;98827.00;;;13.70
11792;BMP180;5953;52.372;9.918;2022-09-28T00:37:39;98833.00;;;13.80
11792;BMP180;5953;52.372;9.918;2022-09-28T00:40:08;98831.00;;;13.80
11792;BMP180;5953;52.372;9.918;2022-09-28T00:42:37;98818.00;;;13.70
11792;BMP180;5953;52.372;9.918;2022-09-28T00:45:08;98812.00;;;13.60
11792;BMP180;5953;52.372;9.918;2022-09-28T00:47:42;98818.00;;;13.50
11792;BMP180;5953;52.372;9.918;2022-09-28T00:50:17;98811.00;;;13.50
11792;BMP180;5953;52.372;9.918;2022-09-28T00:52:49;98799.00;;;13.50
11792;BMP180;5953;52.372;9.918;2022-09-28T00:55:21;98805.00;;;13.40
11792;BMP180;5953;52.372;9.918;2022-09-28T00:57:56;98798.00;;;13.40
11792;BMP180;5953;52.372;9.918;2022-09-28T01:00:25;98799.00;;;13.30
11792;BMP180;5953;52.372;9.918;2022-09-28T01:02:53;98804.00;;;13.40
11792;BMP180;5953;52.372;9.918;2022-09-28T01:05:22;98791.00;;;13.40
11792;BMP180;5953;52.372;9.918;2022-09-28T01:07:50;98770.00;;;13.40
11792;BMP180;5953;52.372;9.918;2022-09-28T01:10:18;98779.00;;;13.40
11792;BMP180;5953;52.372;9.918;2022-09-28T01:12:46;98777.00;;;13.40
11792;BMP180;5953;52.372;9.918;2022-09-28T01:15:16;98778.00;;;13.30
11792;BMP180;5953;52.372;9.918;2022-09-28T01:17:59;98774.00;;;13.30
11792;BMP180;5953;52.372;9.918;2022-09-28T01:20:56;98786.00;;;13.30
11792;BMP180;5953;52.372;9.918;2022-09-28T01:23:47;98773.00;;;13.50
11792;BMP180;5953;52.372;9.918;2022-09-28T01:26:55;98777.00;;;13.50
11792;BMP180;5953;52.372;9.918;2022-09-28T01:29:33;98770.00;;;13.30
11792;BMP180;5953;52.372;9.918;2022-09-28T01:32:11;98758.00;;;13.40
11792;BMP180;5953;52.372;9.918;2022-09-28T01:34:46;98753.00;;;13.30
11792;BMP180;5953;52.372;9.918;2022-09-28T01:37:19;98759.00;;;13.40
11792;BMP180;5953;52.372;9.918;2022-09-28T01:39:48;98760.00;;;13.40
11792;BMP180;5953;52.372;9.918;2022-09-28T01:42:23;98752.00;;;13.40
11792;BMP180;5953;52.372;9.918;2022-09-28T01:44:57;98755.00;;;13.40
11792;BMP180;5953;52.372;9.918;2022-09-28T01:47:28;98759.00;;;13.40
11792;BMP180;5953;52.372;9.918;2022-09-28T01:50:02;98750.00;;;13.40
11792;BMP180;5953;52.372;9.918;2022-09-28T01:52:35;98749.00;;;13.50
11792;BMP180;5953;52.372;9.918;2022-09-28T01:55:10;98750.00;;;13.40
11792;BMP180;5953;52.372;9.918;2022-09-28T01:57:41;98742.00;;;13.50
11792;BMP180;5953;52.372;9.918;2022-09-28T02:00:13;98746.00;;;13.40
11792;BMP180;5953;52.372;9.918;2022-09-28T02:02:46;98727.00;;;13.40
11792;BMP180;5953;52.372;9.918;2022-09-28T02:05:17;98743.00;;;13.40
11792;BMP180;5953;52.372;9.918;2022-09-28T02:07:52;98728.00;;;13.40
11792;BMP180;5953;52.372;9.918;2022-09-28T02:10:24;98732.00;;;13.40
11792;BMP180;5953;52.372;9.918;2022-09-28T02:12:58;98725.00;;;13.40
11792;BMP180;5953;52.372;9.918;2022-09-28T02:15:33;98733.00;;;13.40
11792;BMP180;5953;52.372;9.918;2022-09-28T02:18:04;98717.00;;;13.20
11792;BMP180;5953;52.372;9.918;2022-09-28T02:20:33;98721.00;;;13.40
11792;BMP180;5953;52.372;9.918;2022-09-28T02:23:03;98725.00;;;13.50
11792;BMP180;5953;52.372;9.918;2022-09-28T02:25:35;98729.00;;;13.60
11792;BMP180;5953;52.372;9.918;2022-09-28T02:28:07;98721.00;;;13.50
11792;BMP180;5953;52.372;9.918;2022-09-28T02:30:37;98721.00;;;13.50
11792;BMP180;5953;52.372;9.918;2022-09-28T02:33:10;98722.00;;;13.50
11792;BMP180;5953;52.372;9.918;2022-09-28T02:35:40;98723.00;;;13.30
11792;BMP180;5953;52.372;9.918;2022-09-28T02:38:09;98717.00;;;13.30
11792;BMP180;5953;52.372;9.918;2022-09-28T02:40:37;98710.00;;;13.40
11792;BMP180;5953;52.372;9.918;2022-09-28T02:43:15;98720.00;;;13.50
11792;BMP180;5953;52.372;9.918;2022-09-28T02:45:58;98705.00;;;13.60
11792;BMP180;5953;52.372;9.918;2022-09-28T02:48:39;98710.00;;;13.70
11792;BMP180;5953;52.372;9.918;2022-09-28T02:51:37;98709.00;;;13.60
11792;BMP180;5953;52.372;9.918;2022-09-28T02:54:20;98702.00;;;13.60
11792;BMP180;5953;52.372;9.918;2022-09-28T02:57:09;98703.00;;;13.50
11792;BMP180;5953;52.372;9.918;2022-09-28T02:59:51;98703.00;;;13.50
11792;BMP180;5953;52.372;9.918;2022-09-28T03:02:26;98704.00;;;13.50
11792;BMP180;5953;52.372;9.918;2022-09-28T03:05:06;98699.00;;;13.50
11792;BMP180;5953;52.372;9.918;2022-09-28T03:07:39;98690.00;;;13.70
11792;BMP180;5953;52.372;9.918;2022-09-28T03:10:14;98696.00;;;13.70
11792;BMP180;5953;52.372;9.918;2022-09-28T03:12:43;98692.00;;;13.90
11792;BMP180;5953;52.372;9.918;2022-09-28T03:15:20;98691.00;;;13.70
11792;BMP180;5953;52.372;9.918;2022-09-28T03:17:48;98689.00;;;13.50
11792;BMP180;5953;52.372;9.918;2022-09-28T03:20:16;98686.00;;;13.40
11792;BMP180;5953;52.372;9.918;2022-09-28T03:22:44;98701.00;;;13.30
11792;BMP180;5953;52.372;9.918;2022-09-28T03:25:32;98689.00;;;13.30
11792;BMP180;5953;52.372;9.918;2022-09-28T03:28:00;98689.00;;;13.30
11792;BMP180;5953;52.372;9.918;2022-09-28T03:30:30;98679.00;;;13.30
11792;BMP180;5953;52.372;9.918;2022-09-28T03:32:58;98681.00;;;13.10
11792;BMP180;5953;52.372;9.918;2022-09-28T03:35:27;98687.00;;;13.10
11792;BMP180;5953;52.372;9.918;2022-09-28T03:37:55;98686.00;;;13.00
11792;BMP180;5953;52.372;9.918;2022-09-28T03:40:24;98685.00;;;13.20
11792;BMP180;5953;52.372;9.918;2022-09-28T03:42:52;98676.00;;;13.10
11792;BMP180;5953;52.372;9.918;2022-09-28T03:45:20;98680.00;;;13.00
11792;BMP180;5953;52.372;9.918;2022-09-28T03:47:49;98680.00;;;13.10
11792;BMP180;5953;52.372;9.918;2022-09-28T03:50:17;98681.00;;;13.00
11792;BMP180;5953;52.372;9.918;2022-09-28T03:52:45;98678.00;;;13.20
11792;BMP180;5953;52.372;9.918;2022-09-28T03:55:13;98680.00;;;13.10
11792;BMP180;5953;52.372;9.918;2022-09-28T03:57:41;98675.00;;;13.10
11792;BMP180;5953;52.372;9.918;2022-09-28T04:00:09;98679.00;;;13.20
11792;BMP180;5953;52.372;9.918;2022-09-28T04:02:38;98672.00;;;13.30
11792;BMP180;5953;52.372;9.918;2022-09-28T04:05:07;98671.00;;;13.40
11792;BMP180;5953;52.372;9.918;2022-09-28T04:07:35;98663.00;;;13.40
11792;BMP180;5953;52.372;9.918;2022-09-28T04:10:03;98658.00;;;13.50
11792;BMP180;5953;52.372;9.918;2022-09-28T04:12:31;98666.00;;;13.60
11792;BMP180;5953;52.372;9.918;2022-09-28T04:14:59;98654.00;;;13.60
11792;BMP180;5953;52.372;9.918;2022-09-28T04:17:26;98654.00;;;13.60
11792;BMP180;5953;52.372;9.918;2022-09-28T04:19:54;98661.00;;;13.50
11792;BMP180;5953;52.372;9.918;2022-09-28T04:22:24;98661.00;;;13.50
11792;BMP180;5953;52.372;9.918;2022-09-28T04:24:52;98652.00;;;13.50
11792;BMP180;5953;52.372;9.918;2022-09-28T04:27:20;98649.00;;;13.40
11792;BMP180;5953;52.372;9.918;2022-09-28T04:30:06;98656.00;;;13.40
11792;BMP180;5953;52.372;9.918;2022-09-28T04:32:34;98652.00;;;13.40
11792;BMP180;5953;52.372;9.918;2022-09-28T04:35:02;98655.00;;;13.40
11792;BMP180;5953;52.372;9.918;2022-09-28T04:37:31;98650.00;;;13.30
11792;BMP180;5953;52.372;9.918;2022-09-28T04:39:59;98652.00;;;13.40
11792;BMP180;5953;52.372;9.918;2022-09-28T04:42:27;98653.00;;;13.40
11792;BMP180;5953;52.372;9.918;2022-09-28T04:44:55;98652.00;;;13.40
11792;BMP180;5953;52.372;9.918;2022-09-28T04:47:24;98656.00;;;13.40
11792;BMP180;5953;52.372;9.918;2022-09-28T04:49:52;98647.00;;;13.40
11792;BMP180;5953;52.372;9.918;2022-09-28T04:52:19;98646.00;;;13.40
11792;BMP180;5953;52.372;9.918;2022-09-28T04:54:48;98645.00;;;13.50
11792;BMP180;5953;52.372;9.918;2022-09-28T04:57:16;98646.00;;;13.40
11792;BMP180;5953;52.372;9.918;2022-09-28T04:59:44;98642.00;;;13.30
11792;BMP180;5953;52.372;9.918;2022-09-28T05:02:12;98656.00;;;13.40
11792;BMP180;5953;52.372;9.918;2022-09-28T05:04:40;98643.00;;;13.30
11792;BMP180;5953;52.372;9.918;2022-09-28T05:07:08;98651.00;;;13.30
11792;BMP180;5953;52.372;9.918;2022-09-28T05:09:36;98645.00;;;13.20
11792;BMP180;5953;52.372;9.918;2022-09-28T05:12:07;98640.00;;;13.20
11792;BMP180;5953;52.372;9.918;2022-09-28T05:14:34;98647.00;;;13.10
11792;BMP180;5953;52.372;9.918;2022-09-28T05:17:02;98648.00;;;13.10
11792;BMP180;5953;52.372;9.918;2022-09-28T05:19:30;98639.00;;;13.10
11792;BMP180;5953;52.372;9.918;2022-09-28T05:22:00;98640.00;;;13.10
11792;BMP180;5953;52.372;9.918;2022-09-28T05:24:30;98641.00;;;13.10
11792;BMP180;5953;52.372;9.918;2022-09-28T05:26:57;98644.00;;;13.00
11792;BMP180;5953;52.372;9.918;2022-09-28T05:29:26;98631.00;;;12.90
11792;BMP180;5953;52.372;9.918;2022-09-28T05:31:58;98636.00;;;12.90
11792;BMP180;5953;52.372;9.918;2022-09-28T05:34:27;98643.00;;;12.90
11792;BMP180;5953;52.372;9.918;2022-09-28T05:36:55;98644.00;;;12.90
11792;BMP180;5953;52.372;9.918;2022-09-28T05:39:22;98638.00;;;12.80
11792;BMP180;5953;52.372;9.918;2022-09-28T05:41:50;98638.00;;;12.80
11792;BMP180;5953;52.372;9.918;2022-09-28T05:44:18;98638.00;;;12.80
11792;BMP180;5953;52.372;9.918;2022-09-28T05:46:47;98628.00;;;12.90
11792;BMP180;5953;52.372;9.918;2022-09-28T05:49:15;98629.00;;;12.90
11792;BMP180;5953;52.372;9.918;2022-09-28T05:51:43;98629.00;;;12.90
11792;BMP180;5953;52.372;9.918;2022-09-28T05:54:11;98632.00;;;12.90
11792;BMP180;5953;52.372;9.918;2022-09-28T05:56:39;98637.00;;;12.90
11792;BMP180;5953;52.372;9.918;2022-09-28T05:59:06;98629.00;;;12.70
11792;BMP180;5953;52.372;9.918;2022-09-28T06:01:34;98633.00;;;12.80
11792;BMP180;5953;52.372;9.918;2022-09-28T06:04:04;98628.00;;;12.70
11792;BMP180;5953;52.372;9.918;2022-09-28T06:06:33;98633.00;;;12.80
11792;BMP180;5953;52.372;9.918;2022-09-28T06:09:01;98637.00;;;12.80
11792;BMP180;5953;52.372;9.918;2022-09-28T06:11:30;98637.00;;;12.70
11792;BMP180;5953;52.372;9.918;2022-09-28T06:13:58;98634.00;;;12.70
11792;BMP180;5953;52.372;9.918;2022-09-28T06:16:26;98639.00;;;12.80
11792;BMP180;5953;52.372;9.918;2022-09-28T06:18:53;98638.00;;;12.80
11792;BMP180;5953;52.372;9.918;2022-09-28T06:21:23;98637.00;;;12.80
11792;BMP180;5953;52.372;9.918;2022-09-28T06:23:50;98640.00;;;12.80
11792;BMP180;5953;52.372;9.918;2022-09-28T06:26:18;98638.00;;;12.70
11792;BMP180;5953;52.372;9.918;2022-09-28T06:28:49;98640.00;;;12.80
11792;BMP180;5953;52.372;9.918;2022-09-28T06:31:16;98648.00;;;12.80
11792;BMP180;5953;52.372;9.918;2022-09-28T06:33:49;98648.00;;;12.80
11792;BMP180;5953;52.372;9.918;2022-09-28T06:36:17;98644.00;;;12.90
11792;BMP180;5953;52.372;9.918;2022-09-28T06:38:47;98647.00;;;12.80
11792;BMP180;5953;52.372;9.918;2022-09-28T06:41:15;98638.00;;;12.80
11792;BMP180;5953;52.372;9.918;2022-09-28T06:43:43;98644.00;;;12.90
11792;BMP180;5953;52.372;9.918;2022-09-28T06:46:11;98646.00;;;12.90
11792;BMP180;5953;52.372;9.918;2022-09-28T06:48:40;98649.00;;;12.90
11792;BMP180;5953;52.372;9.918;2022-09-28T06:51:09;98651.00;;;12.90
11792;BMP180;5953;52.372;9.918;2022-09-28T06:53:37;98651.00;;;12.90
11792;BMP180;5953;52.372;9.918;2022-09-28T06:56:09;98659.00;;;12.90
11792;BMP180;5953;52.372;9.918;2022-09-28T06:58:37;98654.00;;;12.90
11792;BMP180;5953;52.372;9.918;2022-09-28T07:01:05;98654.00;;;12.80
11792;BMP180;5953;52.372;9.918;2022-09-28T07:03:33;98662.00;;;12.80
11792;BMP180;5953;52.372;9.918;2022-09-28T07:06:00;98657.00;;;12.80
11792;BMP180;5953;52.372;9.918;2022-09-28T07:08:29;98654.00;;;12.80
11792;BMP180;5953;52.372;9.918;2022-09-28T07:10:56;98654.00;;;12.80
11792;BMP180;5953;52.372;9.918;2022-09-28T07:13:26;98652.00;;;12.80
11792;BMP180;5953;52.372;9.918;2022-09-28T07:16:14;98657.00;;;12.80
11792;BMP180;5953;52.372;9.918;2022-09-28T07:18:42;98670.00;;;12.80
11792;BMP180;5953;52.372;9.918;2022-09-28T07:21:10;98668.00;;;12.80
11792;BMP180;5953;52.372;9.918;2022-09-28T07:23:50;98676.00;;;12.90
11792;BMP180;5953;52.372;9.918;2022-09-28T07:26:20;98687.00;;;12.90
11792;BMP180;5953;52.372;9.918;2022-09-28T07:28:51;98683.00;;;12.80
11792;BMP180;5953;52.372;9.918;2022-09-28T07:31:21;98676.00;;;13.00
11792;BMP180;5953;52.372;9.918;2022-09-28T07:33:50;98684.00;;;12.80
11792;BMP180;5953;52.372;9.918;2022-09-28T07:36:19;98680.00;;;12.80
11792;BMP180;5953;52.372;9.918;2022-09-28T07:38:48;98685.00;;;12.80
11792;BMP180;5953;52.372;9.918;2022-09-28T07:41:16;98670.00;;;12.80
11792;BMP180;5953;52.372;9.918;2022-09-28T07:43:47;98685.00;;;12.90
11792;BMP180;5953;52.372;9.918;2022-09-28T07:46:17;98689.00;;;12.90
11792;BMP180;5953;52.372;9.918;2022-09-28T07:48:47;98692.00;;;12.90
11792;BMP180;5953;52.372;9.918;2022-09-28T07:51:14;98689.00;;;13.10
11792;BMP180;5953;52.372;9.918;2022-09-28T07:53:45;98691.00;;;13.00
11792;BMP180;5953;52.372;9.918;2022-09-28T07:56:13;98699.00;;;12.90
11792;BMP180;5953;52.372;9.918;2022-09-28T07:58:42;98699.00;;;13.00
11792;BMP180;5953;52.372;9.918;2022-09-28T08:01:10;98701.00;;;13.00
11792;BMP180;5953;52.372;9.918;2022-09-28T08:03:42;98700.00;;;13.10
11792;BMP180;5953;52.372;9.918;2022-09-28T08:06:11;98705.00;;;13.10
11792;BMP180;5953;52.372;9.918;2022-09-28T08:08:40;98706.00;;;13.10
11792;BMP180;5953;52.372;9.918;2022-09-28T08:11:11;98703.00;;;13.20
11792;BMP180;5953;52.372;9.918;2022-09-28T08:13:39;98712.00;;;13.20
11792;BMP180;5953;52.372;9.918;2022-09-28T08:16:06;98702.00;;;13.10
11792;BMP180;5953;52.372;9.918;2022-09-28T08:18:34;98711.00;;;13.10
11792;BMP180;5953;52.372;9.918;2022-09-28T08:21:05;98719.00;;;13.10
11792;BMP180;5953;52.372;9.918;2022-09-28T08:23:50;98715.00;;;12.90
11792;BMP180;5953;52.372;9.918;2022-09-28T08:26:18;98725.00;;;12.90
11792;BMP180;5953;52.372;9.918;2022-09-28T08:28:46;98724.00;;;12.90
11792;BMP180;5953;52.372;9.918;2022-09-28T08:31:14;98728.00;;;12.90
11792;BMP180;5953;52.372;9.918;2022-09-28T08:33:42;98726.00;;;12.90
11792;BMP180;5953;52.372;9.918;2022-09-28T08:36:11;98727.00;;;13.00
11792;BMP180;5953;52.372;9.918;2022-09-28T08:38:39;98728.00;;;13.00
11792;BMP180;5953;52.372;9.918;2022-09-28T08:41:16;98733.00;;;13.00
11792;BMP180;5953;52.372;9.918;2022-09-28T08:43:56;98736.00;;;13.20
11792;BMP180;5953;52.372;9.918;2022-09-28T08:46:30;98736.00;;;13.20
11792;BMP180;5953;52.372;9.918;2022-09-28T08:49:04;98748.00;;;13.30
11792;BMP180;5953;52.372;9.918;2022-09-28T08:51:58;98747.00;;;13.30
11792;BMP180;5953;52.372;9.918;2022-09-28T08:54:35;98750.00;;;13.40
11792;BMP180;5953;52.372;9.918;2022-09-28T08:57:09;98745.00;;;13.40
11792;BMP180;5953;52.372;9.918;2022-09-28T08:59:45;98735.00;;;13.50
11792;BMP180;5953;52.372;9.918;2022-09-28T09:02:19;98759.00;;;13.60
11792;BMP180;5953;52.372;9.918;2022-09-28T09:04:48;98757.00;;;13.70
11792;BMP180;5953;52.372;9.918;2022-09-28T09:07:29;98757.00;;;13.60
11792;BMP180;5953;52.372;9.918;2022-09-28T09:10:06;98755.00;;;13.60
11792;BMP180;5953;52.372;9.918;2022-09-28T09:12:44;98767.00;;;13.30
11792;BMP180;5953;52.372;9.918;2022-09-28T09:15:20;98771.00;;;13.20
11792;BMP180;5953;52.372;9.918;2022-09-28T09:17:59;98763.00;;;13.20
11792;BMP180;5953;52.372;9.918;2022-09-28T09:20:55;98767.00;;;13.10
11792;BMP180;5953;52.372;9.918;2022-09-28T09:23:34;98775.00;;;13.10
11792;BMP180;5953;52.372;9.918;2022-09-28T09:26:09;98776.00;;;13.00
11792;BMP180;5953;52.372;9.918;2022-09-28T09:29:02;98769.00;;;13.00
11792;BMP180;5953;52.372;9.918;2022-09-28T09:31:55;98784.00;;;12.80
11792;BMP180;5953;52.372;9.918;2022-09-28T09:34:40;98794.00;;;12.80
11792;BMP180;5953;52.372;9.918;2022-09-28T09:37:20;98792.00;;;12.90
11792;BMP180;5953;52.372;9.918;2022-09-28T09:40:05;98794.00;;;12.80
11792;BMP180;5953;52.372;9.918;2022-09-28T09:42:46;98794.00;;;12.70
11792;BMP180;5953;52.372;9.918;2022-09-28T09:45:30;98794.00;;;12.90
11792;BMP180;5953;52.372;9.918;2022-09-28T09:48:05;98806.00;;;13.10
11792;BMP180;5953;52.372;9.918;2022-09-28T09:50:37;98812.00;;;13.10
11792;BMP180;5953;52.372;9.918;2022-09-28T09:53:15;98812.00;;;13.20
11792;BMP180;5953;52.372;9.918;2022-09-28T09:55:49;98800.00;;;13.20
11792;BMP180;5953;52.372;9.918;2022-09-28T09:58:26;98807.00;;;13.20
11792;BMP180;5953;52.372;9.918;2022-09-28T10:01:00;98815.00;;;13.40
11792;BMP180;5953;52.372;9.918;2022-09-28T10:03:30;98813.00;;;13.50
11792;BMP180;5953;52.372;9.918;2022-09-28T10:06:02;98819.00;;;13.60
11792;BMP180;5953;52.372;9.918;2022-09-28T10:08:36;98826.00;;;13.60
11792;BMP180;5953;52.372;9.918;2022-09-28T10:11:11;98823.00;;;13.60
11792;BMP180;5953;52.372;9.918;2022-09-28T10:13:40;98820.00;;;13.70
11792;BMP180;5953;52.372;9.918;2022-09-28T10:16:08;98823.00;;;13.70
11792;BMP180;5953;52.372;9.918;2022-09-28T10:18:36;98812.00;;;13.60
11792;BMP180;5953;52.372;9.918;2022-09-28T10:21:04;98823.00;;;13.60
11792;BMP180;5953;52.372;9.918;2022-09-28T10:23:35;98825.00;;;13.70
11792;BMP180;5953;52.372;9.918;2022-09-28T10:26:09;98833.00;;;13.60
11792;BMP180;5953;52.372;9.918;2022-09-28T10:28:43;98826.00;;;13.60
11792;BMP180;5953;52.372;9.918;2022-09-28T10:31:37;98832.00;;;13.80
11792;BMP180;5953;52.372;9.918;2022-09-28T10:34:07;98828.00;;;13.80
11792;BMP180;5953;52.372;9.918;2022-09-28T10:36:44;98833.00;;;14.00
11792;BMP180;5953;52.372;9.918;2022-09-28T10:39:34;98844.00;;;14.00
11792;BMP180;5953;52.372;9.918;2022-09-28T10:42:06;98838.00;;;14.00
11792;BMP180;5953;52.372;9.918;2022-09-28T10:44:48;98847.00;;;13.90
11792;BMP180;5953;52.372;9.918;2022-09-28T10:47:18;98838.00;;;13.90
11792;BMP180;5953;52.372;9.918;2022-09-28T10:49:49;98844.00;;;13.70
11792;BMP180;5953;52.372;9.918;2022-09-28T10:52:35;98852.00;;;13.70
11792;BMP180;5953;52.372;9.918;2022-09-28T10:55:26;98853.00;;;14.00
11792;BMP180;5953;52.372;9.918;2022-09-28T10:57:56;98849.00;;;14.00
11792;BMP180;5953;52.372;9.918;2022-09-28T11:00:33;98851.00;;;14.10
11792;BMP180;5953;52.372;9.918;2022-09-28T11:03:02;98846.00;;;14.10
11792;BMP180;5953;52.372;9.918;2022-09-28T11:05:30;98849.00;;;14.00
11792;BMP180;5953;52.372;9.918;2022-09-28T11:08:01;98840.00;;;14.00
11792;BMP180;5953;52.372;9.918;2022-09-28T11:10:30;98859.00;;;13.70
11792;BMP180;5953;52.372;9.918;2022-09-28T11:13:00;98860.00;;;13.70
11792;BMP180;5953;52.372;9.918;2022-09-28T11:15:30;98866.00;;;13.90
11792;BMP180;5953;52.372;9.918;2022-09-28T11:18:17;98859.00;;;13.90
11792;BMP180;5953;52.372;9.918;2022-09-28T11:20:46;98871.00;;;13.90
11792;BMP180;5953;52.372;9.918;2022-09-28T11:23:18;98873.00;;;14.00
11792;BMP180;5953;52.372;9.918;2022-09-28T11:26:02;98877.00;;;13.90
11792;BMP180;5953;52.372;9.918;2022-09-28T11:28:34;98863.00;;;14.10
11792;BMP180;5953;52.372;9.918;2022-09-28T11:31:03;98865.00;;;14.20
11792;BMP180;5953;52.372;9.918;2022-09-28T11:33:34;98865.00;;;14.20
11792;BMP180;5953;52.372;9.918;2022-09-28T11:36:14;98869.00;;;14.20
11792;BMP180;5953;52.372;9.918;2022-09-28T11:38:52;98869.00;;;14.20
11792;BMP180;5953;52.372;9.918;2022-09-28T11:41:32;98873.00;;;14.30
11792;BMP180;5953;52.372;9.918;2022-09-28T11:44:20;98867.00;;;14.10
11792;BMP180;5953;52.372;9.918;2022-09-28T11:47:07;98864.00;;;14.30
11792;BMP180;5953;52.372;9.918;2022-09-28T11:49:40;98876.00;;;14.40
11792;BMP180;5953;52.372;9.918;2022-09-28T11:52:16;98878.00;;;14.60
11792;BMP180;5953;52.372;9.918;2022-09-28T11:54:48;98881.00;;;14.60
11792;BMP180;5953;52.372;9.918;2022-09-28T11:57:20;98876.00;;;14.60
11792;BMP180;5953;52.372;9.918;2022-09-28T11:59:56;98877.00;;;14.60
11792;BMP180;5953;52.372;9.918;2022-09-28T12:02:27;98881.00;;;14.60
11792;BMP180;5953;52.372;9.918;2022-09-28T12:05:07;98885.00;;;14.60
11792;BMP180;5953;52.372;9.918;2022-09-28T12:07:47;98883.00;;;14.60
11792;BMP180;5953;52.372;9.918;2022-09-28T12:10:19;98883.00;;;14.80
11792;BMP180;5953;52.372;9.918;2022-09-28T12:12:52;98879.00;;;14.70
11792;BMP180;5953;52.372;9.918;2022-09-28T12:15:26;98884.00;;;14.50
11792;BMP180;5953;52.372;9.918;2022-09-28T12:18:17;98887.00;;;14.50
11792;BMP180;5953;52.372;9.918;2022-09-28T12:20:51;98888.00;;;14.60
11792;BMP180;5953;52.372;9.918;2022-09-28T12:23:24;98890.00;;;14.80
11792;BMP180;5953;52.372;9.918;2022-09-28T12:25:58;98886.00;;;14.50
11792;BMP180;5953;52.372;9.918;2022-09-28T12:28:32;98892.00;;;14.60
11792;BMP180;5953;52.372;9.918;2022-09-28T12:31:10;98892.00;;;14.70
11792;BMP180;5953;52.372;9.918;2022-09-28T12:33:40;98898.00;;;14.80
11792;BMP180;5953;52.372;9.918;2022-09-28T12:36:21;98888.00;;;14.80
11792;BMP180;5953;52.372;9.918;2022-09-28T12:39:20;98885.00;;;14.80
11792;BMP180;5953;52.372;9.918;2022-09-28T12:42:20;98888.00;;;14.70
11792;BMP180;5953;52.372;9.918;2022-09-28T12:45:06;98890.00;;;14.80
11792;BMP180;5953;52.372;9.918;2022-09-28T12:47:52;98893.00;;;14.90
11792;BMP180;5953;52.372;9.918;2022-09-28T12:50:26;98896.00;;;15.10
11792;BMP180;5953;52.372;9.918;2022-09-28T12:53:19;98895.00;;;15.10
11792;BMP180;5953;52.372;9.918;2022-09-28T12:55:52;98895.00;;;15.20
11792;BMP180;5953;52.372;9.918;2022-09-28T12:58:34;98904.00;;;15.20
11792;BMP180;5953;52.372;9.918;2022-09-28T13:01:15;98908.00;;;15.00
11792;BMP180;5953;52.372;9.918;2022-09-28T13:07:00;98901.00;;;15.10
11792;BMP180;5953;52.372;9.918;2022-09-28T13:09:36;98897.00;;;15.10
11792;BMP180;5953;52.372;9.918;2022-09-28T13:12:20;98900.00;;;14.90
11792;BMP180;5953;52.372;9.918;2022-09-28T13:17:23;98903.00;;;14.90
11792;BMP180;5953;52.372;9.918;2022-09-28T13:19:57;98905.00;;;15.20
11792;BMP180;5953;52.372;9.918;2022-09-28T13:22:35;98905.00;;;15.10
11792;BMP180;5953;52.372;9.918;2022-09-28T13:25:12;98903.00;;;15.20
11792;BMP180;5953;52.372;9.918;2022-09-28T13:27:47;98905.00;;;15.40
11792;BMP180;5953;52.372;9.918;2022-09-28T13:30:17;98904.00;;;15.40
11792;BMP180;5953;52.372;9.918;2022-09-28T13:32:45;98905.00;;;15.50
11792;BMP180;5953;52.372;9.918;2022-09-28T13:35:16;98922.00;;;15.40
11792;BMP180;5953;52.372;9.918;2022-09-28T13:41:11;98909.00;;;15.10
11792;BMP180;5953;52.372;9.918;2022-09-28T13:43:54;98912.00;;;15.30
11792;BMP180;5953;52.372;9.918;2022-09-28T13:46:30;98913.00;;;15.40
11792;BMP180;5953;52.372;9.918;2022-09-28T13:49:07;98904.00;;;15.40
11792;BMP180;5953;52.372;9.918;2022-09-28T13:51:47;98916.00;;;15.30
11792;BMP180;5953;52.372;9.918;2022-09-28T13:54:31;98917.00;;;15.40
11792;BMP180;5953;52.372;9.918;2022-09-28T13:57:15;98923.00;;;15.30
11792;BMP180;5953;52.372;9.918;2022-09-28T13:59:53;98925.00;;;15.30
11792;BMP180;5953;52.372;9.918;2022-09-28T14:02:30;98928.00;;;15.40
11792;BMP180;5953;52.372;9.918;2022-09-28T14:05:03;98940.00;;;15.40
11792;BMP180;5953;52.372;9.918;2022-09-28T14:07:56;98933.00;;;15.40
11792;BMP180;5953;52.372;9.918;2022-09-28T14:10:47;98937.00;;;15.40
11792;BMP180;5953;52.372;9.918;2022-09-28T14:13:59;98939.00;;;15.50
11792;BMP180;5953;52.372;9.918;2022-09-28T14:16:29;98942.00;;;15.50
11792;BMP180;5953;52.372;9.918;2022-09-28T14:19:03;98936.00;;;15.40
11792;BMP180;5953;52.372;9.918;2022-09-28T14:21:52;98937.00;;;15.30
11792;BMP180;5953;52.372;9.918;2022-09-28T14:24:31;98934.00;;;15.10
11792;BMP180;5953;52.372;9.918;2022-09-28T14:27:25;98942.00;;;14.70
11792;BMP180;5953;52.372;9.918;2022-09-28T14:30:06;98939.00;;;14.80
11792;BMP180;5953;52.372;9.918;2022-09-28T14:32:49;98948.00;;;15.10
11792;BMP180;5953;52.372;9.918;2022-09-28T14:35:26;98949.00;;;15.20
11792;BMP180;5953;52.372;9.918;2022-09-28T14:37:59;98948.00;;;15.10
11792;BMP180;5953;52.372;9.918;2022-09-28T14:40:58;98955.00;;;15.20
11792;BMP180;5953;52.372;9.918;2022-09-28T14:43:57;98952.00;;;15.00
11792;BMP180;5953;52.372;9.918;2022-09-28T14:46:43;98958.00;;;15.20
11792;BMP180;5953;52.372;9.918;2022-09-28T14:49:44;98944.00;;;15.20
11792;BMP180;5953;52.372;9.918;2022-09-28T14:52:37;98954.00;;;15.30
11792;BMP180;5953;52.372;9.918;2022-09-28T14:55:13;98950.00;;;15.30
11792;BMP180;5953;52.372;9.918;2022-09-28T14:57:41;98955.00;;;15.10
11792;BMP180;5953;52.372;9.918;2022-09-28T15:00:19;98959.00;;;15.10
11792;BMP180;5953;52.372;9.918;2022-09-28T15:02:49;98960.00;;;15.20
11792;BMP180;5953;52.372;9.918;2022-09-28T15:05:22;98963.00;;;15.30
11792;BMP180;5953;52.372;9.918;2022-09-28T15:07:53;98951.00;;;15.20